sensor_id;sensor_type;location;lat;lon;timestamp;P1;durP1;ratioP1;P2;durP2;ratioP2
75885;SDS011;64561;44.018;10.144;2024-03-02T00:00:21;10.15;;;6.55;;
75885;SDS011;64561;44.018;10.144;2024-03-02T00:02:49;9.18;;;5.82;;
75885;SDS011;64561;44.018;10.144;2024-03-02T00:05:19;9.85;;;5.50;;
75885;SDS011;64561;44.018;10.144;2024-03-02T00:07:55;7.95;;;5.72;;
75885;SDS011;64561;44.018;10.144;2024-03-02T00:10:28;10.68;;;5.35;;
75885;SDS011;64561;44.018;10.144;2024-03-02T00:13:04;10.57;;;5.57;;
75885;SDS011;64561;44.018;10.144;2024-03-02T00:15:47;7.93;;;6.00;;
75885;SDS011;64561;44.018;10.144;2024-03-02T00:18:27;10.77;;;5.72;;
75885;SDS011;64561;44.018;10.144;2024-03-02T00:20:58;10.05;;;6.22;;
75885;SDS011;64561;44.018;10.144;2024-03-02T00:23:32;8.77;;;5.32;;
75885;SDS011;64561;44.018;10.144;2024-03-02T00:26:00;8.15;;;5.45;;
75885;SDS011;64561;44.018;10.144;2024-03-02T00:28:32;9.35;;;5.15;;
75885;SDS011;64561;44.018;10.144;2024-03-02T00:36:04;6.93;;;3.88;;
75885;SDS011;64561;44.018;10.144;2024-03-02T00:38:32;7.03;;;3.97;;
75885;SDS011;64561;44.018;10.144;2024-03-02T00:41:04;6.88;;;3.95;;
75885;SDS011;64561;44.018;10.144;2024-03-02T00:43:41;5.82;;;3.90;;
75885;SDS011;64561;44.018;10.144;2024-03-02T00:46:15;7.25;;;3.60;;
75885;SDS011;64561;44.018;10.144;2024-03-02T00:48:50;5.25;;;3.50;;
75885;SDS011;64561;44.018;10.144;2024-03-02T00:51:22;6.25;;;4.15;;
75885;SDS011;64561;44.018;10.144;2024-03-02T00:53:51;6.65;;;3.20;;
75885;SDS011;64561;44.018;10.144;2024-03-02T00:56:24;4.88;;;2.47;;
75885;SDS011;64561;44.018;10.144;2024-03-02T00:58:53;5.40;;;2.30;;
75885;SDS011;64561;44.018;10.144;2024-03-02T01:01:20;5.10;;;2.15;;
75885;SDS011;64561;44.018;10.144;2024-03-02T01:03:48;4.78;;;2.22;;
75885;SDS011;64561;44.018;10.144;2024-03-02T01:06:16;2.75;;;1.70;;
75885;SDS011;64561;44.018;10.144;2024-03-02T01:08:43;3.30;;;1.70;;
75885;SDS011;64561;44.018;10.144;2024-03-02T01:11:11;3.03;;;1.70;;
75885;SDS011;64561;44.018;10.144;2024-03-02T01:13:38;2.95;;;1.70;;
75885;SDS011;64561;44.018;10.144;2024-03-02T01:16:05;3.08;;;1.63;;
75885;SDS011;64561;44.018;10.144;2024-03-02T01:18:33;5.28;;;2.03;;
75885;SDS011;64561;44.018;10.144;2024-03-02T01:21:00;4.60;;;2.50;;
75885;SDS011;64561;44.018;10.144;2024-03-02T01:23:28;3.50;;;2.05;;
75885;SDS011;64561;44.018;10.144;2024-03-02T01:25:55;3.97;;;2.05;;
75885;SDS011;64561;44.018;10.144;2024-03-02T01:28:23;3.92;;;2.40;;
75885;SDS011;64561;44.018;10.144;2024-03-02T01:30:50;3.33;;;2.20;;
75885;SDS011;64561;44.018;10.144;2024-03-02T01:33:18;7.75;;;2.97;;
75885;SDS011;64561;44.018;10.144;2024-03-02T01:35:46;7.07;;;2.80;;
75885;SDS011;64561;44.018;10.144;2024-03-02T01:38:17;4.47;;;2.33;;
75885;SDS011;64561;44.018;10.144;2024-03-02T01:40:57;4.70;;;2.38;;
75885;SDS011;64561;44.018;10.144;2024-03-02T01:43:25;5.10;;;1.85;;
75885;SDS011;64561;44.018;10.144;2024-03-02T01:45:52;3.42;;;1.77;;
75885;SDS011;64561;44.018;10.144;2024-03-02T01:48:20;3.10;;;1.80;;
75885;SDS011;64561;44.018;10.144;2024-03-02T01:50:48;3.08;;;1.65;;
75885;SDS011;64561;44.018;10.144;2024-03-02T01:53:15;2.13;;;1.60;;
75885;SDS011;64561;44.018;10.144;2024-03-02T01:55:42;3.30;;;1.38;;
75885;SDS011;64561;44.018;10.144;2024-03-02T01:58:10;1.80;;;1.20;;
75885;SDS011;64561;44.018;10.144;2024-03-02T02:00:37;3.55;;;1.55;;
75885;SDS011;64561;44.018;10.144;2024-03-02T02:03:04;3.42;;;1.52;;
75885;SDS011;64561;44.018;10.144;2024-03-02T02:05:34;2.80;;;1.67;;
75885;SDS011;64561;44.018;10.144;2024-03-02T02:08:02;6.65;;;2.47;;
75885;SDS011;64561;44.018;10.144;2024-03-02T02:10:29;2.72;;;1.80;;
75885;SDS011;64561;44.018;10.144;2024-03-02T02:12:57;3.55;;;1.98;;
75885;SDS011;64561;44.018;10.144;2024-03-02T02:15:25;6.70;;;2.78;;
75885;SDS011;64561;44.018;10.144;2024-03-02T02:17:56;4.90;;;2.13;;
75885;SDS011;64561;44.018;10.144;2024-03-02T02:20:44;3.85;;;2.42;;
75885;SDS011;64561;44.018;10.144;2024-03-02T02:23:11;2.75;;;1.95;;
75885;SDS011;64561;44.018;10.144;2024-03-02T02:25:40;4.80;;;2.38;;
75885;SDS011;64561;44.018;10.144;2024-03-02T02:28:08;2.65;;;1.90;;
75885;SDS011;64561;44.018;10.144;2024-03-02T02:30:35;4.00;;;2.13;;
75885;SDS011;64561;44.018;10.144;2024-03-02T02:33:02;2.78;;;1.92;;
75885;SDS011;64561;44.018;10.144;2024-03-02T02:35:30;4.65;;;2.10;;
75885;SDS011;64561;44.018;10.144;2024-03-02T02:37:57;4.32;;;2.05;;
75885;SDS011;64561;44.018;10.144;2024-03-02T02:40:28;3.58;;;2.00;;
75885;SDS011;64561;44.018;10.144;2024-03-02T02:42:58;2.47;;;1.63;;
75885;SDS011;64561;44.018;10.144;2024-03-02T02:45:26;4.00;;;1.90;;
75885;SDS011;64561;44.018;10.144;2024-03-02T02:47:53;3.78;;;2.63;;
75885;SDS011;64561;44.018;10.144;2024-03-02T02:50:21;3.58;;;1.80;;
75885;SDS011;64561;44.018;10.144;2024-03-02T02:52:48;3.83;;;2.03;;
75885;SDS011;64561;44.018;10.144;2024-03-02T02:55:16;5.13;;;2.83;;
75885;SDS011;64561;44.018;10.144;2024-03-02T02:57:43;4.65;;;2.38;;
75885;SDS011;64561;44.018;10.144;2024-03-02T03:00:12;3.53;;;2.58;;
75885;SDS011;64561;44.018;10.144;2024-03-02T03:02:46;3.05;;;1.90;;
75885;SDS011;64561;44.018;10.144;2024-03-02T03:05:18;3.22;;;2.08;;
75885;SDS011;64561;44.018;10.144;2024-03-02T03:07:46;3.17;;;2.20;;
75885;SDS011;64561;44.018;10.144;2024-03-02T03:10:16;7.97;;;4.82;;
75885;SDS011;64561;44.018;10.144;2024-03-02T03:12:43;6.30;;;3.30;;
75885;SDS011;64561;44.018;10.144;2024-03-02T03:15:11;4.85;;;2.25;;
75885;SDS011;64561;44.018;10.144;2024-03-02T03:17:40;3.70;;;2.22;;
75885;SDS011;64561;44.018;10.144;2024-03-02T03:20:07;3.97;;;2.33;;
75885;SDS011;64561;44.018;10.144;2024-03-02T03:22:38;5.40;;;2.25;;
75885;SDS011;64561;44.018;10.144;2024-03-02T03:25:06;3.65;;;2.10;;
75885;SDS011;64561;44.018;10.144;2024-03-02T03:27:37;2.83;;;2.20;;
75885;SDS011;64561;44.018;10.144;2024-03-02T03:30:05;4.18;;;2.20;;
75885;SDS011;64561;44.018;10.144;2024-03-02T03:32:34;4.28;;;1.92;;
75885;SDS011;64561;44.018;10.144;2024-03-02T03:35:01;3.40;;;2.28;;
75885;SDS011;64561;44.018;10.144;2024-03-02T03:37:29;5.85;;;2.38;;
75885;SDS011;64561;44.018;10.144;2024-03-02T03:40:02;4.28;;;1.35;;
75885;SDS011;64561;44.018;10.144;2024-03-02T03:42:33;3.25;;;1.60;;
75885;SDS011;64561;44.018;10.144;2024-03-02T03:45:01;2.67;;;1.35;;
75885;SDS011;64561;44.018;10.144;2024-03-02T03:47:33;2.30;;;1.40;;
75885;SDS011;64561;44.018;10.144;2024-03-02T03:50:00;3.83;;;1.50;;
75885;SDS011;64561;44.018;10.144;2024-03-02T03:52:29;5.43;;;2.30;;
75885;SDS011;64561;44.018;10.144;2024-03-02T03:54:57;3.20;;;2.20;;
75885;SDS011;64561;44.018;10.144;2024-03-02T03:57:24;4.72;;;2.33;;
75885;SDS011;64561;44.018;10.144;2024-03-02T03:59:51;3.70;;;2.40;;
75885;SDS011;64561;44.018;10.144;2024-03-02T04:02:18;4.68;;;2.80;;
75885;SDS011;64561;44.018;10.144;2024-03-02T04:04:45;3.10;;;2.17;;
75885;SDS011;64561;44.018;10.144;2024-03-02T04:07:13;2.63;;;1.92;;
75885;SDS011;64561;44.018;10.144;2024-03-02T04:09:40;3.42;;;1.75;;
75885;SDS011;64561;44.018;10.144;2024-03-02T04:12:07;4.35;;;1.92;;
75885;SDS011;64561;44.018;10.144;2024-03-02T04:14:34;4.35;;;2.35;;
75885;SDS011;64561;44.018;10.144;2024-03-02T04:17:01;4.25;;;2.20;;
75885;SDS011;64561;44.018;10.144;2024-03-02T04:19:29;4.47;;;2.03;;
75885;SDS011;64561;44.018;10.144;2024-03-02T04:21:56;3.13;;;1.45;;
75885;SDS011;64561;44.018;10.144;2024-03-02T04:24:27;1.90;;;1.50;;
75885;SDS011;64561;44.018;10.144;2024-03-02T04:26:54;2.00;;;1.42;;
75885;SDS011;64561;44.018;10.144;2024-03-02T04:29:21;4.22;;;1.77;;
75885;SDS011;64561;44.018;10.144;2024-03-02T04:31:48;2.50;;;1.75;;
75885;SDS011;64561;44.018;10.144;2024-03-02T04:34:16;2.38;;;1.70;;
75885;SDS011;64561;44.018;10.144;2024-03-02T04:36:43;2.42;;;1.60;;
75885;SDS011;64561;44.018;10.144;2024-03-02T04:39:10;2.50;;;1.80;;
75885;SDS011;64561;44.018;10.144;2024-03-02T04:41:37;3.08;;;1.77;;
75885;SDS011;64561;44.018;10.144;2024-03-02T04:44:04;3.00;;;1.65;;
75885;SDS011;64561;44.018;10.144;2024-03-02T04:46:33;2.90;;;1.63;;
75885;SDS011;64561;44.018;10.144;2024-03-02T04:49:00;2.97;;;1.90;;
75885;SDS011;64561;44.018;10.144;2024-03-02T04:51:28;3.60;;;2.65;;
75885;SDS011;64561;44.018;10.144;2024-03-02T04:53:55;5.22;;;2.75;;
75885;SDS011;64561;44.018;10.144;2024-03-02T04:56:22;4.88;;;2.50;;
75885;SDS011;64561;44.018;10.144;2024-03-02T04:58:49;4.07;;;2.60;;
75885;SDS011;64561;44.018;10.144;2024-03-02T05:01:16;4.00;;;2.10;;
75885;SDS011;64561;44.018;10.144;2024-03-02T05:03:44;2.75;;;2.08;;
75885;SDS011;64561;44.018;10.144;2024-03-02T05:06:12;2.75;;;2.17;;
75885;SDS011;64561;44.018;10.144;2024-03-02T05:08:39;3.15;;;2.00;;
75885;SDS011;64561;44.018;10.144;2024-03-02T05:11:06;4.38;;;1.90;;
75885;SDS011;64561;44.018;10.144;2024-03-02T05:13:52;3.15;;;2.20;;
75885;SDS011;64561;44.018;10.144;2024-03-02T05:16:19;2.55;;;1.92;;
75885;SDS011;64561;44.018;10.144;2024-03-02T05:18:46;3.28;;;2.00;;
75885;SDS011;64561;44.018;10.144;2024-03-02T05:21:13;2.95;;;2.10;;
75885;SDS011;64561;44.018;10.144;2024-03-02T05:23:40;2.38;;;1.63;;
75885;SDS011;64561;44.018;10.144;2024-03-02T05:26:07;2.00;;;1.30;;
75885;SDS011;64561;44.018;10.144;2024-03-02T05:28:36;1.70;;;1.10;;
75885;SDS011;64561;44.018;10.144;2024-03-02T05:31:03;2.13;;;0.95;;
75885;SDS011;64561;44.018;10.144;2024-03-02T05:33:31;2.78;;;1.17;;
75885;SDS011;64561;44.018;10.144;2024-03-02T05:36:00;2.17;;;1.15;;
75885;SDS011;64561;44.018;10.144;2024-03-02T05:38:28;1.70;;;1.20;;
75885;SDS011;64561;44.018;10.144;2024-03-02T05:40:55;2.13;;;1.50;;
75885;SDS011;64561;44.018;10.144;2024-03-02T05:43:22;2.28;;;1.40;;
75885;SDS011;64561;44.018;10.144;2024-03-02T05:45:50;2.55;;;1.33;;
75885;SDS011;64561;44.018;10.144;2024-03-02T05:48:17;2.22;;;1.02;;
75885;SDS011;64561;44.018;10.144;2024-03-02T05:50:44;2.05;;;1.17;;
75885;SDS011;64561;44.018;10.144;2024-03-02T05:53:11;1.40;;;1.10;;
75885;SDS011;64561;44.018;10.144;2024-03-02T05:55:38;1.27;;;0.98;;
75885;SDS011;64561;44.018;10.144;2024-03-02T05:58:06;1.45;;;1.02;;
75885;SDS011;64561;44.018;10.144;2024-03-02T06:00:33;1.40;;;1.10;;
75885;SDS011;64561;44.018;10.144;2024-03-02T06:03:00;2.47;;;1.08;;
75885;SDS011;64561;44.018;10.144;2024-03-02T06:05:27;1.45;;;1.08;;
75885;SDS011;64561;44.018;10.144;2024-03-02T06:07:54;1.88;;;1.20;;
75885;SDS011;64561;44.018;10.144;2024-03-02T06:10:22;0.95;;;0.88;;
75885;SDS011;64561;44.018;10.144;2024-03-02T06:12:49;2.20;;;1.48;;
75885;SDS011;64561;44.018;10.144;2024-03-02T06:15:16;3.20;;;2.30;;
75885;SDS011;64561;44.018;10.144;2024-03-02T06:17:44;4.75;;;2.63;;
75885;SDS011;64561;44.018;10.144;2024-03-02T06:20:11;4.10;;;2.92;;
75885;SDS011;64561;44.018;10.144;2024-03-02T06:22:38;5.57;;;2.92;;
75885;SDS011;64561;44.018;10.144;2024-03-02T06:25:05;6.25;;;4.13;;
75885;SDS011;64561;44.018;10.144;2024-03-02T06:27:33;7.75;;;5.00;;
75885;SDS011;64561;44.018;10.144;2024-03-02T06:30:00;7.47;;;4.95;;
75885;SDS011;64561;44.018;10.144;2024-03-02T06:32:29;10.18;;;5.15;;
75885;SDS011;64561;44.018;10.144;2024-03-02T06:34:56;7.60;;;4.25;;
75885;SDS011;64561;44.018;10.144;2024-03-02T06:37:23;7.90;;;5.32;;
75885;SDS011;64561;44.018;10.144;2024-03-02T06:39:50;8.13;;;5.45;;
75885;SDS011;64561;44.018;10.144;2024-03-02T06:42:18;7.28;;;5.43;;
75885;SDS011;64561;44.018;10.144;2024-03-02T06:44:45;7.68;;;5.20;;
75885;SDS011;64561;44.018;10.144;2024-03-02T06:47:12;5.15;;;3.50;;
75885;SDS011;64561;44.018;10.144;2024-03-02T06:49:39;6.20;;;2.78;;
75885;SDS011;64561;44.018;10.144;2024-03-02T06:52:06;5.95;;;2.95;;
75885;SDS011;64561;44.018;10.144;2024-03-02T06:54:33;5.35;;;2.85;;
75885;SDS011;64561;44.018;10.144;2024-03-02T06:57:01;4.13;;;2.53;;
75885;SDS011;64561;44.018;10.144;2024-03-02T06:59:29;3.47;;;2.50;;
75885;SDS011;64561;44.018;10.144;2024-03-02T07:01:56;3.72;;;2.20;;
75885;SDS011;64561;44.018;10.144;2024-03-02T07:04:23;4.05;;;1.90;;
75885;SDS011;64561;44.018;10.144;2024-03-02T07:06:51;3.10;;;1.75;;
75885;SDS011;64561;44.018;10.144;2024-03-02T07:09:18;1.92;;;1.35;;
75885;SDS011;64561;44.018;10.144;2024-03-02T07:11:49;2.63;;;1.23;;
75885;SDS011;64561;44.018;10.144;2024-03-02T07:14:18;2.05;;;1.00;;
75885;SDS011;64561;44.018;10.144;2024-03-02T07:16:45;1.90;;;1.30;;
75885;SDS011;64561;44.018;10.144;2024-03-02T07:19:12;3.38;;;1.20;;
75885;SDS011;64561;44.018;10.144;2024-03-02T07:21:39;2.70;;;1.30;;
75885;SDS011;64561;44.018;10.144;2024-03-02T07:24:07;2.28;;;1.20;;
75885;SDS011;64561;44.018;10.144;2024-03-02T07:26:36;3.08;;;1.50;;
75885;SDS011;64561;44.018;10.144;2024-03-02T07:29:06;3.33;;;1.23;;
75885;SDS011;64561;44.018;10.144;2024-03-02T07:31:36;2.92;;;1.85;;
75885;SDS011;64561;44.018;10.144;2024-03-02T07:34:03;3.35;;;2.30;;
75885;SDS011;64561;44.018;10.144;2024-03-02T07:36:30;6.93;;;3.05;;
75885;SDS011;64561;44.018;10.144;2024-03-02T07:38:58;4.80;;;3.28;;
75885;SDS011;64561;44.018;10.144;2024-03-02T07:41:25;5.18;;;3.30;;
75885;SDS011;64561;44.018;10.144;2024-03-02T07:43:52;5.43;;;3.28;;
75885;SDS011;64561;44.018;10.144;2024-03-02T07:46:19;3.67;;;2.30;;
75885;SDS011;64561;44.018;10.144;2024-03-02T07:48:46;8.63;;;3.92;;
75885;SDS011;64561;44.018;10.144;2024-03-02T07:51:14;10.20;;;3.95;;
75885;SDS011;64561;44.018;10.144;2024-03-02T07:53:41;5.68;;;3.25;;
75885;SDS011;64561;44.018;10.144;2024-03-02T07:56:09;5.63;;;3.50;;
75885;SDS011;64561;44.018;10.144;2024-03-02T07:58:37;6.70;;;4.05;;
75885;SDS011;64561;44.018;10.144;2024-03-02T08:01:04;4.28;;;2.60;;
75885;SDS011;64561;44.018;10.144;2024-03-02T08:03:32;2.97;;;1.88;;
75885;SDS011;64561;44.018;10.144;2024-03-02T08:06:01;3.22;;;1.92;;
75885;SDS011;64561;44.018;10.144;2024-03-02T08:08:28;2.95;;;1.33;;
75885;SDS011;64561;44.018;10.144;2024-03-02T08:10:55;2.95;;;1.27;;
75885;SDS011;64561;44.018;10.144;2024-03-02T08:13:25;2.40;;;1.40;;
75885;SDS011;64561;44.018;10.144;2024-03-02T08:15:52;1.70;;;1.20;;
75885;SDS011;64561;44.018;10.144;2024-03-02T08:18:20;2.08;;;1.20;;
75885;SDS011;64561;44.018;10.144;2024-03-02T08:20:47;1.77;;;1.20;;
75885;SDS011;64561;44.018;10.144;2024-03-02T08:23:14;2.88;;;1.50;;
75885;SDS011;64561;44.018;10.144;2024-03-02T08:25:42;3.03;;;1.58;;
75885;SDS011;64561;44.018;10.144;2024-03-02T08:28:10;4.00;;;2.47;;
75885;SDS011;64561;44.018;10.144;2024-03-02T08:30:38;4.65;;;2.50;;
75885;SDS011;64561;44.018;10.144;2024-03-02T08:33:05;4.22;;;2.58;;
75885;SDS011;64561;44.018;10.144;2024-03-02T08:35:32;7.05;;;3.75;;
75885;SDS011;64561;44.018;10.144;2024-03-02T08:38:03;4.90;;;2.95;;
75885;SDS011;64561;44.018;10.144;2024-03-02T08:40:31;4.35;;;2.55;;
75885;SDS011;64561;44.018;10.144;2024-03-02T08:42:58;4.20;;;1.80;;
75885;SDS011;64561;44.018;10.144;2024-03-02T08:45:25;2.22;;;1.52;;
75885;SDS011;64561;44.018;10.144;2024-03-02T08:47:53;4.28;;;1.70;;
75885;SDS011;64561;44.018;10.144;2024-03-02T08:50:20;2.28;;;1.23;;
75885;SDS011;64561;44.018;10.144;2024-03-02T08:52:48;6.28;;;2.40;;
75885;SDS011;64561;44.018;10.144;2024-03-02T08:55:15;4.35;;;2.63;;
75885;SDS011;64561;44.018;10.144;2024-03-02T08:57:43;2.40;;;1.88;;
75885;SDS011;64561;44.018;10.144;2024-03-02T09:00:11;4.97;;;2.25;;
75885;SDS011;64561;44.018;10.144;2024-03-02T09:02:39;3.13;;;1.75;;
75885;SDS011;64561;44.018;10.144;2024-03-02T09:05:06;2.60;;;1.40;;
75885;SDS011;64561;44.018;10.144;2024-03-02T09:07:35;3.35;;;2.22;;
75885;SDS011;64561;44.018;10.144;2024-03-02T09:10:02;3.85;;;2.20;;
75885;SDS011;64561;44.018;10.144;2024-03-02T09:12:30;6.35;;;4.10;;
75885;SDS011;64561;44.018;10.144;2024-03-02T09:14:58;5.50;;;3.00;;
75885;SDS011;64561;44.018;10.144;2024-03-02T09:17:29;5.35;;;2.60;;
75885;SDS011;64561;44.018;10.144;2024-03-02T09:19:57;5.00;;;2.58;;
75885;SDS011;64561;44.018;10.144;2024-03-02T09:22:24;4.53;;;2.22;;
75885;SDS011;64561;44.018;10.144;2024-03-02T09:24:52;2.97;;;2.08;;
75885;SDS011;64561;44.018;10.144;2024-03-02T09:27:19;4.45;;;2.67;;
75885;SDS011;64561;44.018;10.144;2024-03-02T09:29:47;4.70;;;1.95;;
75885;SDS011;64561;44.018;10.144;2024-03-02T09:32:15;3.45;;;1.38;;
75885;SDS011;64561;44.018;10.144;2024-03-02T09:34:42;3.63;;;1.42;;
75885;SDS011;64561;44.018;10.144;2024-03-02T09:37:10;4.95;;;2.05;;
75885;SDS011;64561;44.018;10.144;2024-03-02T09:39:37;6.53;;;1.83;;
75885;SDS011;64561;44.018;10.144;2024-03-02T09:42:05;7.55;;;3.78;;
75885;SDS011;64561;44.018;10.144;2024-03-02T09:44:33;4.88;;;2.05;;
75885;SDS011;64561;44.018;10.144;2024-03-02T09:47:00;5.25;;;2.97;;
75885;SDS011;64561;44.018;10.144;2024-03-02T09:49:29;6.07;;;2.10;;
75885;SDS011;64561;44.018;10.144;2024-03-02T09:51:59;4.03;;;2.33;;
75885;SDS011;64561;44.018;10.144;2024-03-02T09:54:31;3.08;;;2.20;;
75885;SDS011;64561;44.018;10.144;2024-03-02T09:56:59;3.22;;;2.08;;
75885;SDS011;64561;44.018;10.144;2024-03-02T09:59:28;6.35;;;2.30;;
75885;SDS011;64561;44.018;10.144;2024-03-02T10:05:05;6.32;;;2.55;;
75885;SDS011;64561;44.018;10.144;2024-03-02T10:07:34;3.55;;;1.77;;
75885;SDS011;64561;44.018;10.144;2024-03-02T10:10:14;3.03;;;1.80;;
75885;SDS011;64561;44.018;10.144;2024-03-02T10:12:43;4.05;;;2.33;;
75885;SDS011;64561;44.018;10.144;2024-03-02T10:18:35;3.80;;;1.85;;
75885;SDS011;64561;44.018;10.144;2024-03-02T10:21:13;3.13;;;1.63;;
75885;SDS011;64561;44.018;10.144;2024-03-02T10:23:41;5.93;;;2.25;;
75885;SDS011;64561;44.018;10.144;2024-03-02T10:26:16;4.15;;;2.10;;
75885;SDS011;64561;44.018;10.144;2024-03-02T10:28:46;4.95;;;2.97;;
75885;SDS011;64561;44.018;10.144;2024-03-02T10:31:14;4.25;;;2.10;;
75885;SDS011;64561;44.018;10.144;2024-03-02T10:33:41;5.05;;;2.08;;
75885;SDS011;64561;44.018;10.144;2024-03-02T10:36:09;6.20;;;2.50;;
75885;SDS011;64561;44.018;10.144;2024-03-02T10:38:37;6.63;;;2.67;;
75885;SDS011;64561;44.018;10.144;2024-03-02T10:41:04;6.35;;;2.45;;
75885;SDS011;64561;44.018;10.144;2024-03-02T10:43:31;5.90;;;1.70;;
75885;SDS011;64561;44.018;10.144;2024-03-02T10:45:59;5.68;;;2.45;;
75885;SDS011;64561;44.018;10.144;2024-03-02T10:48:26;5.05;;;1.55;;
75885;SDS011;64561;44.018;10.144;2024-03-02T10:50:54;5.70;;;1.60;;
75885;SDS011;64561;44.018;10.144;2024-03-02T10:53:24;3.88;;;1.75;;
75885;SDS011;64561;44.018;10.144;2024-03-02T10:55:51;3.78;;;1.73;;
75885;SDS011;64561;44.018;10.144;2024-03-02T10:58:26;3.53;;;1.55;;
75885;SDS011;64561;44.018;10.144;2024-03-02T11:01:03;7.00;;;2.55;;
75885;SDS011;64561;44.018;10.144;2024-03-02T11:03:31;30.73;;;14.65;;
75885;SDS011;64561;44.018;10.144;2024-03-02T11:06:02;8.82;;;3.92;;
75885;SDS011;64561;44.018;10.144;2024-03-02T11:08:34;8.73;;;2.35;;
75885;SDS011;64561;44.018;10.144;2024-03-02T11:11:06;3.72;;;1.60;;
75885;SDS011;64561;44.018;10.144;2024-03-02T11:13:38;7.13;;;3.92;;
75885;SDS011;64561;44.018;10.144;2024-03-02T11:16:09;5.03;;;1.80;;
75885;SDS011;64561;44.018;10.144;2024-03-02T11:18:43;11.27;;;2.95;;
75885;SDS011;64561;44.018;10.144;2024-03-02T11:21:11;4.13;;;1.65;;
75885;SDS011;64561;44.018;10.144;2024-03-02T11:23:40;4.57;;;2.30;;
75885;SDS011;64561;44.018;10.144;2024-03-02T11:26:25;5.38;;;2.30;;
75885;SDS011;64561;44.018;10.144;2024-03-02T11:28:52;4.65;;;2.40;;
75885;SDS011;64561;44.018;10.144;2024-03-02T11:31:19;6.47;;;3.28;;
75885;SDS011;64561;44.018;10.144;2024-03-02T11:33:46;5.90;;;3.85;;
75885;SDS011;64561;44.018;10.144;2024-03-02T11:36:13;11.65;;;4.47;;
75885;SDS011;64561;44.018;10.144;2024-03-02T11:38:43;8.48;;;4.78;;
75885;SDS011;64561;44.018;10.144;2024-03-02T11:41:15;9.00;;;4.28;;
75885;SDS011;64561;44.018;10.144;2024-03-02T11:43:42;13.77;;;9.25;;
75885;SDS011;64561;44.018;10.144;2024-03-02T11:46:11;14.25;;;6.75;;
75885;SDS011;64561;44.018;10.144;2024-03-02T11:48:40;8.23;;;3.92;;
75885;SDS011;64561;44.018;10.144;2024-03-02T11:51:07;4.90;;;2.50;;
75885;SDS011;64561;44.018;10.144;2024-03-02T11:53:35;4.65;;;2.28;;
75885;SDS011;64561;44.018;10.144;2024-03-02T11:56:06;8.52;;;3.08;;
75885;SDS011;64561;44.018;10.144;2024-03-02T11:58:36;13.70;;;4.43;;
75885;SDS011;64561;44.018;10.144;2024-03-02T12:01:04;8.43;;;3.60;;
75885;SDS011;64561;44.018;10.144;2024-03-02T12:03:34;8.20;;;4.75;;
75885;SDS011;64561;44.018;10.144;2024-03-02T12:06:02;5.55;;;3.40;;
75885;SDS011;64561;44.018;10.144;2024-03-02T12:08:30;6.72;;;2.40;;
75885;SDS011;64561;44.018;10.144;2024-03-02T12:10:59;6.85;;;3.50;;
75885;SDS011;64561;44.018;10.144;2024-03-02T12:13:28;8.38;;;2.60;;
75885;SDS011;64561;44.018;10.144;2024-03-02T12:15:55;6.93;;;4.00;;
75885;SDS011;64561;44.018;10.144;2024-03-02T12:18:23;7.68;;;3.08;;
75885;SDS011;64561;44.018;10.144;2024-03-02T12:20:53;12.73;;;2.78;;
75885;SDS011;64561;44.018;10.144;2024-03-02T12:23:25;4.43;;;2.22;;
75885;SDS011;64561;44.018;10.144;2024-03-02T12:25:52;5.30;;;2.53;;
75885;SDS011;64561;44.018;10.144;2024-03-02T12:28:20;6.30;;;2.03;;
75885;SDS011;64561;44.018;10.144;2024-03-02T12:30:47;4.13;;;2.25;;
75885;SDS011;64561;44.018;10.144;2024-03-02T12:33:16;6.63;;;2.28;;
75885;SDS011;64561;44.018;10.144;2024-03-02T12:35:44;5.57;;;2.00;;
75885;SDS011;64561;44.018;10.144;2024-03-02T12:38:12;6.93;;;2.58;;
75885;SDS011;64561;44.018;10.144;2024-03-02T12:40:40;9.38;;;3.83;;
75885;SDS011;64561;44.018;10.144;2024-03-02T12:43:07;5.20;;;1.95;;
75885;SDS011;64561;44.018;10.144;2024-03-02T12:45:34;5.95;;;1.88;;
75885;SDS011;64561;44.018;10.144;2024-03-02T12:48:02;4.95;;;1.85;;
75885;SDS011;64561;44.018;10.144;2024-03-02T12:50:33;3.05;;;1.60;;
75885;SDS011;64561;44.018;10.144;2024-03-02T12:53:00;11.93;;;4.53;;
75885;SDS011;64561;44.018;10.144;2024-03-02T12:55:28;3.38;;;1.70;;
75885;SDS011;64561;44.018;10.144;2024-03-02T12:57:56;6.97;;;2.22;;
75885;SDS011;64561;44.018;10.144;2024-03-02T13:00:26;4.22;;;1.80;;
75885;SDS011;64561;44.018;10.144;2024-03-02T13:02:54;2.50;;;1.58;;
75885;SDS011;64561;44.018;10.144;2024-03-02T13:05:32;4.25;;;1.52;;
75885;SDS011;64561;44.018;10.144;2024-03-02T13:07:59;9.07;;;2.85;;
75885;SDS011;64561;44.018;10.144;2024-03-02T13:10:27;6.28;;;3.67;;
75885;SDS011;64561;44.018;10.144;2024-03-02T13:12:54;4.38;;;2.30;;
75885;SDS011;64561;44.018;10.144;2024-03-02T13:15:23;9.55;;;2.22;;
75885;SDS011;64561;44.018;10.144;2024-03-02T13:17:50;7.88;;;2.75;;
75885;SDS011;64561;44.018;10.144;2024-03-02T13:20:18;11.40;;;2.53;;
75885;SDS011;64561;44.018;10.144;2024-03-02T13:22:49;3.10;;;1.52;;
75885;SDS011;64561;44.018;10.144;2024-03-02T13:25:16;3.50;;;1.70;;
75885;SDS011;64561;44.018;10.144;2024-03-02T13:27:44;6.90;;;2.03;;
75885;SDS011;64561;44.018;10.144;2024-03-02T13:30:11;5.35;;;2.40;;
75885;SDS011;64561;44.018;10.144;2024-03-02T13:32:39;7.60;;;1.63;;
75885;SDS011;64561;44.018;10.144;2024-03-02T13:35:06;5.75;;;2.25;;
75885;SDS011;64561;44.018;10.144;2024-03-02T13:37:33;4.95;;;1.40;;
75885;SDS011;64561;44.018;10.144;2024-03-02T13:40:01;7.18;;;2.45;;
75885;SDS011;64561;44.018;10.144;2024-03-02T13:42:29;4.88;;;1.77;;
75885;SDS011;64561;44.018;10.144;2024-03-02T13:44:56;4.15;;;2.10;;
75885;SDS011;64561;44.018;10.144;2024-03-02T13:47:23;5.22;;;1.98;;
75885;SDS011;64561;44.018;10.144;2024-03-02T13:49:50;3.17;;;1.88;;
75885;SDS011;64561;44.018;10.144;2024-03-02T13:52:22;4.60;;;1.50;;
75885;SDS011;64561;44.018;10.144;2024-03-02T13:54:51;4.80;;;1.80;;
75885;SDS011;64561;44.018;10.144;2024-03-02T13:57:19;6.15;;;1.63;;
75885;SDS011;64561;44.018;10.144;2024-03-02T13:59:50;5.35;;;1.58;;
75885;SDS011;64561;44.018;10.144;2024-03-02T14:02:19;10.18;;;2.03;;
75885;SDS011;64561;44.018;10.144;2024-03-02T14:04:46;7.35;;;2.85;;
75885;SDS011;64561;44.018;10.144;2024-03-02T14:07:16;6.25;;;2.25;;
75885;SDS011;64561;44.018;10.144;2024-03-02T14:09:44;10.38;;;2.20;;
75885;SDS011;64561;44.018;10.144;2024-03-02T14:12:12;6.00;;;1.67;;
75885;SDS011;64561;44.018;10.144;2024-03-02T14:14:40;5.82;;;2.05;;
75885;SDS011;64561;44.018;10.144;2024-03-02T14:17:08;7.60;;;2.70;;
75885;SDS011;64561;44.018;10.144;2024-03-02T14:19:41;9.27;;;2.50;;
75885;SDS011;64561;44.018;10.144;2024-03-02T14:22:08;8.10;;;1.85;;
75885;SDS011;64561;44.018;10.144;2024-03-02T14:24:35;6.50;;;1.75;;
75885;SDS011;64561;44.018;10.144;2024-03-02T14:27:03;5.80;;;1.95;;
75885;SDS011;64561;44.018;10.144;2024-03-02T14:29:50;5.72;;;2.40;;
75885;SDS011;64561;44.018;10.144;2024-03-02T14:32:17;3.20;;;1.38;;
75885;SDS011;64561;44.018;10.144;2024-03-02T14:34:44;7.15;;;1.25;;
75885;SDS011;64561;44.018;10.144;2024-03-02T14:37:14;4.45;;;1.63;;
75885;SDS011;64561;44.018;10.144;2024-03-02T14:39:42;6.50;;;1.92;;
75885;SDS011;64561;44.018;10.144;2024-03-02T14:42:11;4.93;;;1.67;;
75885;SDS011;64561;44.018;10.144;2024-03-02T14:45:11;8.52;;;1.95;;
75885;SDS011;64561;44.018;10.144;2024-03-02T14:47:43;4.63;;;2.05;;
75885;SDS011;64561;44.018;10.144;2024-03-02T14:50:13;7.05;;;2.08;;
75885;SDS011;64561;44.018;10.144;2024-03-02T14:52:44;5.63;;;1.55;;